createdAt,value
2018-11-20T00:00:44.788Z,10.40
2018-11-20T00:01:44.798Z,9.90
2018-11-20T00:02:44.799Z,9.60
2018-11-20T00:03:44.814Z,9.10
2018-11-20T00:04:44.826Z,11.00
2018-11-20T00:05:44.842Z,10.40
2018-11-20T00:06:44.854Z,9.90
2018-11-20T00:07:44.867Z,10.60
2018-11-20T00:08:44.893Z,10.60
2018-11-20T00:09:44.894Z,10.80
2018-11-20T00:10:44.907Z,10.30
2018-11-20T00:11:44.910Z,10.60
2018-11-20T00:12:44.923Z,10.00
2018-11-20T00:13:44.936Z,10.20
2018-11-20T00:14:44.951Z,10.60
2018-11-20T00:15:44.963Z,10.30
2018-11-20T00:16:44.977Z,10.40
2018-11-20T00:17:44.990Z,9.80
2018-11-20T00:18:45.003Z,9.70
2018-11-20T00:19:45.005Z,10.10
2018-11-20T00:20:45.019Z,9.80
2018-11-20T00:21:45.032Z,9.30
2018-11-20T00:22:45.047Z,10.20
2018-11-20T00:23:45.060Z,10.30
2018-11-20T00:24:45.072Z,9.20
2018-11-20T00:25:45.085Z,9.30
2018-11-20T00:26:45.102Z,9.10
2018-11-20T00:27:45.099Z,9.70
2018-11-20T00:28:45.114Z,10.00
2018-11-20T00:29:45.127Z,10.80
2018-11-20T00:30:45.143Z,9.10
2018-11-20T00:31:45.153Z,9.20
2018-11-20T00:32:45.168Z,10.20
2018-11-20T00:33:45.180Z,10.00
2018-11-20T00:34:45.187Z,9.90
2018-11-20T00:35:45.196Z,9.50
2018-11-20T00:36:45.209Z,9.90
2018-11-20T00:37:45.222Z,9.80
2018-11-20T00:38:45.235Z,9.40
2018-11-20T00:39:45.249Z,10.50
2018-11-20T00:40:45.263Z,10.20
2018-11-20T00:41:45.264Z,9.20
2018-11-20T00:42:45.278Z,9.50
2018-11-20T00:43:45.290Z,9.20
2018-11-20T00:44:45.305Z,10.10
2018-11-20T00:45:45.318Z,10.20
2018-11-20T00:46:45.331Z,9.40
2018-11-20T00:47:45.344Z,9.90
2018-11-20T00:48:45.359Z,9.40
2018-11-20T00:49:45.360Z,9.20
2018-11-20T00:50:45.374Z,10.10
2018-11-20T00:51:45.387Z,10.30
2018-11-20T00:52:45.400Z,9.80
2018-11-20T00:53:45.422Z,9.40
2018-11-20T00:54:45.427Z,9.70
2018-11-20T00:55:45.444Z,9.70
2018-11-20T00:56:45.444Z,9.80
2018-11-20T00:57:45.456Z,9.40
2018-11-20T00:58:45.469Z,9.40
2018-11-20T00:59:45.482Z,9.30
2018-11-20T01:00:45.497Z,9.20
2018-11-20T01:01:45.508Z,9.00
2018-11-20T01:02:45.523Z,9.60
2018-11-20T01:03:47.385Z,9.40
2018-11-20T01:04:45.537Z,9.50
2018-11-20T01:05:45.551Z,9.80
2018-11-20T01:06:45.565Z,9.30
2018-11-20T01:07:45.579Z,8.70
2018-11-20T01:08:45.605Z,8.30
2018-11-20T01:09:45.606Z,8.80
2018-11-20T01:10:45.619Z,9.20
2018-11-20T01:11:45.633Z,8.80
2018-11-20T01:12:45.634Z,10.00
2018-11-20T01:13:45.646Z,9.40
2018-11-20T01:14:46.093Z,8.20
2018-11-20T01:15:45.674Z,8.90
2018-11-20T01:16:45.688Z,8.60
2018-11-20T01:17:45.700Z,8.30
2018-11-20T01:18:45.713Z,8.90
2018-11-20T01:19:45.727Z,8.70
2018-11-20T01:20:45.728Z,8.40
2018-11-20T01:21:45.743Z,8.80
2018-11-20T01:22:45.755Z,9.00
2018-11-20T01:23:45.769Z,10.10
2018-11-20T01:24:45.782Z,8.60
2018-11-20T01:25:45.796Z,8.20
2018-11-20T01:26:45.814Z,8.60
2018-11-20T01:27:45.824Z,8.70
2018-11-20T01:28:45.825Z,8.80
2018-11-20T01:29:45.837Z,8.90
2018-11-20T01:30:45.852Z,8.50
2018-11-20T01:31:45.866Z,8.20
2018-11-20T01:32:45.878Z,8.60
2018-11-20T01:33:45.892Z,9.30
2018-11-20T01:34:45.909Z,8.80
2018-11-20T01:35:45.918Z,8.90
2018-11-20T01:36:45.921Z,9.50
2018-11-20T01:37:45.933Z,8.40
2018-11-20T01:38:45.951Z,8.80
2018-11-20T01:39:45.961Z,9.10
2018-11-20T01:40:45.974Z,9.00
2018-11-20T01:41:45.988Z,8.40
2018-11-20T01:42:46.015Z,9.80
2018-11-20T01:43:46.015Z,9.60
2018-11-20T01:44:46.020Z,9.50
2018-11-20T01:45:46.029Z,9.60
2018-11-20T01:46:46.043Z,9.70
2018-11-20T01:47:46.056Z,9.30
2018-11-20T01:48:46.071Z,9.40
2018-11-20T01:49:46.083Z,9.30
2018-11-20T01:50:46.098Z,10.10
2018-11-20T01:51:46.110Z,10.10
2018-11-20T01:52:46.112Z,10.10
2018-11-20T01:53:46.125Z,9.90
2018-11-20T01:54:46.142Z,9.80
2018-11-20T01:55:46.153Z,9.80
2018-11-20T01:56:46.166Z,9.70
2018-11-20T01:57:46.181Z,9.90
2018-11-20T01:58:46.193Z,9.90
2018-11-20T01:59:46.207Z,10.70
2018-11-20T02:00:46.207Z,9.60
2018-11-20T02:01:46.220Z,10.60
2018-11-20T02:02:46.236Z,9.40
2018-11-20T02:03:46.260Z,10.50
2018-11-20T02:04:46.265Z,9.90
2018-11-20T02:05:46.275Z,10.20
2018-11-20T02:06:46.290Z,9.80
2018-11-20T02:07:46.290Z,9.90
2018-11-20T02:08:46.303Z,10.80
2018-11-20T02:09:46.321Z,9.60
2018-11-20T02:10:46.330Z,10.50
2018-11-20T02:11:46.345Z,10.10
2018-11-20T02:12:46.359Z,10.00
2018-11-20T02:13:46.370Z,10.20
2018-11-20T02:14:46.374Z,10.00
2018-11-20T02:15:46.385Z,10.10
2018-11-20T02:16:46.399Z,10.30
2018-11-20T02:17:46.412Z,10.30
2018-11-20T02:18:46.427Z,10.00
2018-11-20T02:19:46.444Z,10.30
2018-11-20T02:20:46.453Z,9.90
2018-11-20T02:21:46.454Z,10.40
2018-11-20T02:22:46.480Z,10.50
2018-11-20T02:23:46.481Z,9.70
2018-11-20T02:24:46.497Z,9.90
2018-11-20T02:25:46.509Z,9.60
2018-11-20T02:26:46.522Z,10.40
2018-11-20T02:27:46.535Z,10.80
2018-11-20T02:28:46.548Z,10.50
2018-11-20T02:29:46.550Z,10.40
2018-11-20T02:30:46.564Z,10.10
2018-11-20T02:31:46.576Z,10.00
2018-11-20T02:32:46.590Z,9.40
2018-11-20T02:33:46.604Z,10.00
2018-11-20T02:34:46.618Z,9.70
2018-11-20T02:35:46.631Z,9.40
2018-11-20T02:36:46.631Z,9.80
2018-11-20T02:37:46.646Z,9.40
2018-11-20T02:38:46.658Z,9.50
2018-11-20T02:39:46.673Z,8.70
2018-11-20T02:40:46.685Z,10.60
2018-11-20T02:41:46.701Z,9.30
2018-11-20T02:42:46.726Z,10.00
2018-11-20T02:43:46.715Z,9.50
2018-11-20T02:44:46.730Z,9.80
2018-11-20T02:45:46.791Z,9.50
2018-11-20T02:46:46.804Z,9.30
2018-11-20T02:47:46.768Z,9.40
2018-11-20T02:48:46.781Z,9.30
2018-11-20T02:49:46.782Z,9.70
2018-11-20T02:50:46.796Z,9.40
2018-11-20T02:51:46.809Z,8.60
2018-11-20T02:52:46.826Z,9.60
2018-11-20T02:53:46.845Z,9.50
2018-11-20T02:54:46.849Z,9.20
2018-11-20T02:55:46.864Z,8.90
2018-11-20T02:56:46.866Z,8.50
2018-11-20T02:57:46.879Z,9.40
2018-11-20T02:58:46.893Z,9.30
2018-11-20T02:59:46.905Z,9.20
2018-11-20T03:00:46.919Z,8.70
2018-11-20T03:01:46.932Z,9.10
2018-11-20T03:02:46.947Z,9.40
2018-11-20T03:03:46.976Z,8.60
2018-11-20T03:04:46.960Z,8.60
2018-11-20T03:05:46.974Z,8.50
2018-11-20T03:06:46.988Z,8.50
2018-11-20T03:07:47.007Z,8.70
2018-11-20T03:08:47.015Z,8.30
2018-11-20T03:09:47.019Z,8.40
2018-11-20T03:10:47.032Z,8.30
2018-11-20T03:11:47.043Z,8.70
2018-11-20T03:12:47.057Z,8.60
2018-11-20T03:13:47.069Z,9.20
2018-11-20T03:14:47.085Z,8.70
2018-11-20T03:15:47.096Z,9.10
2018-11-20T03:16:47.100Z,8.50
2018-11-20T03:17:47.112Z,9.10
2018-11-20T03:18:47.137Z,8.20
2018-11-20T03:19:47.138Z,9.60
2018-11-20T03:20:47.165Z,8.60
2018-11-20T03:21:47.166Z,9.30
2018-11-20T03:22:47.167Z,9.40
2018-11-20T03:23:47.193Z,8.90
2018-11-20T03:24:47.193Z,9.20
2018-11-20T03:25:47.210Z,9.10
2018-11-20T03:26:47.241Z,8.10
2018-11-20T03:27:47.234Z,9.10
2018-11-20T03:28:47.236Z,8.60
2018-11-20T03:29:47.249Z,8.90
2018-11-20T03:30:47.261Z,9.50
2018-11-20T03:31:47.279Z,9.20
2018-11-20T03:32:47.292Z,9.00
2018-11-20T03:33:47.303Z,8.60
2018-11-20T03:34:47.316Z,9.50
2018-11-20T03:35:47.317Z,9.60
2018-11-20T03:36:47.332Z,8.30
2018-11-20T03:37:47.347Z,9.00
2018-11-20T03:38:47.360Z,9.70
2018-11-20T03:39:47.374Z,9.50
2018-11-20T03:40:47.385Z,9.30
2018-11-20T03:41:47.387Z,9.50
2018-11-20T03:42:47.405Z,9.80
2018-11-20T03:43:47.415Z,9.40
2018-11-20T03:44:47.426Z,8.90
2018-11-20T03:45:47.440Z,9.80
2018-11-20T03:46:47.454Z,9.40
2018-11-20T03:47:47.468Z,10.30
2018-11-20T03:48:47.468Z,9.40
2018-11-20T03:49:47.482Z,9.60
2018-11-20T03:50:47.498Z,9.30
2018-11-20T03:51:47.509Z,9.10
2018-11-20T03:52:47.523Z,9.30
2018-11-20T03:53:47.538Z,9.40
2018-11-20T03:54:47.537Z,9.80
2018-11-20T03:55:47.551Z,9.20
2018-11-20T03:56:47.567Z,9.90
2018-11-20T03:57:47.577Z,9.10
2018-11-20T03:58:47.593Z,9.50
2018-11-20T03:59:47.606Z,9.70
2018-11-20T04:00:47.606Z,9.50
2018-11-20T04:01:47.618Z,9.50
2018-11-20T04:02:47.637Z,9.00
2018-11-20T04:03:47.645Z,10.00
2018-11-20T04:04:47.662Z,9.70
2018-11-20T04:05:47.672Z,9.90
2018-11-20T04:06:47.687Z,9.50
2018-11-20T04:07:47.688Z,9.40
2018-11-20T04:08:47.703Z,9.30
2018-11-20T04:09:47.720Z,9.40
2018-11-20T04:10:47.729Z,9.30
2018-11-20T04:11:47.741Z,10.10
2018-11-20T04:12:47.754Z,9.60
2018-11-20T04:13:47.757Z,9.60
2018-11-20T04:14:47.770Z,10.80
2018-11-20T04:15:47.782Z,10.60
2018-11-20T04:16:47.797Z,10.50
2018-11-20T04:17:47.863Z,10.10
2018-11-20T04:18:47.828Z,10.40
2018-11-20T04:19:47.837Z,10.80
2018-11-20T04:20:47.840Z,10.10
2018-11-20T04:21:47.853Z,10.80
2018-11-20T04:22:47.865Z,10.90
2018-11-20T04:23:47.880Z,10.40
2018-11-20T04:24:47.892Z,10.70
2018-11-20T04:25:47.907Z,10.20
2018-11-20T04:26:47.919Z,10.50
2018-11-20T04:27:47.920Z,11.30
2018-11-20T04:28:47.935Z,11.90
2018-11-20T04:29:47.947Z,10.40
2018-11-20T04:30:47.965Z,10.90
2018-11-20T04:31:47.975Z,10.70
2018-11-20T04:32:47.989Z,10.70
2018-11-20T04:33:47.990Z,10.50
2018-11-20T04:34:48.004Z,10.30
2018-11-20T04:35:48.017Z,10.60
2018-11-20T04:36:48.032Z,11.80
2018-11-20T04:37:48.044Z,11.20
2018-11-20T04:38:48.069Z,11.60
2018-11-20T04:39:48.071Z,11.40
2018-11-20T04:40:48.072Z,10.80
2018-11-20T04:41:48.085Z,11.00
2018-11-20T04:42:48.099Z,11.40
2018-11-20T04:43:48.112Z,11.80
2018-11-20T04:44:48.125Z,11.30
2018-11-20T04:45:48.138Z,11.90
2018-11-20T04:46:48.140Z,10.60
2018-11-20T04:47:48.155Z,10.80
2018-11-20T04:48:48.167Z,10.30
2018-11-20T04:49:48.186Z,11.80
2018-11-20T04:50:48.196Z,10.20
2018-11-20T04:51:48.208Z,10.90
2018-11-20T04:52:48.221Z,11.50
2018-11-20T04:53:48.222Z,11.30
2018-11-20T04:54:48.236Z,10.60
2018-11-20T04:55:48.249Z,11.30
2018-11-20T04:56:48.268Z,11.30
2018-11-20T04:57:48.355Z,10.80
2018-11-20T04:58:48.291Z,10.80
2018-11-20T04:59:48.292Z,10.70
2018-11-20T05:00:48.304Z,10.60
2018-11-20T05:01:48.319Z,10.90
2018-11-20T05:02:48.333Z,10.60
2018-11-20T05:03:48.345Z,11.90
2018-11-20T05:04:48.358Z,11.20
2018-11-20T05:05:48.364Z,11.60
2018-11-20T05:06:48.454Z,11.30
2018-11-20T05:07:48.387Z,10.80
2018-11-20T05:08:48.401Z,11.50
2018-11-20T05:09:48.413Z,10.60
2018-11-20T05:10:48.428Z,11.60
2018-11-20T05:11:48.441Z,12.20
2018-11-20T05:12:48.441Z,10.90
2018-11-20T05:13:48.455Z,10.90
2018-11-20T05:14:48.468Z,11.10
2018-11-20T05:15:48.483Z,11.10
2018-11-20T05:16:48.496Z,11.50
2018-11-20T05:17:48.509Z,10.90
2018-11-20T05:18:48.514Z,11.20
2018-11-20T05:19:48.537Z,11.20
2018-11-20T05:20:48.538Z,11.00
2018-11-20T05:21:48.550Z,10.90
2018-11-20T05:22:48.565Z,10.60
2018-11-20T05:23:48.578Z,10.30
2018-11-20T05:24:48.591Z,10.60
2018-11-20T05:25:48.592Z,10.30
2018-11-20T05:26:48.605Z,10.90
2018-11-20T05:27:48.670Z,11.10
2018-11-20T05:28:48.633Z,11.00
2018-11-20T05:29:48.650Z,10.90
2018-11-20T05:30:48.720Z,10.70
2018-11-20T05:31:48.662Z,10.30
2018-11-20T05:32:48.675Z,10.80
2018-11-20T05:33:48.689Z,11.40
2018-11-20T05:34:48.702Z,10.80
2018-11-20T05:35:48.720Z,10.60
2018-11-20T05:36:48.733Z,10.80
2018-11-20T05:37:48.731Z,11.20
2018-11-20T05:38:48.744Z,11.00
2018-11-20T05:39:48.757Z,11.10
2018-11-20T05:40:48.770Z,10.50
2018-11-20T05:41:48.787Z,10.90
2018-11-20T05:42:48.797Z,10.50
2018-11-20T05:43:48.811Z,11.10
2018-11-20T05:44:48.813Z,10.00
2018-11-20T05:45:48.825Z,11.00
2018-11-20T05:46:48.891Z,11.60
2018-11-20T05:47:48.855Z,11.90
2018-11-20T05:48:48.867Z,11.00
2018-11-20T05:49:48.880Z,10.90
2018-11-20T05:50:48.882Z,11.50
2018-11-20T05:51:48.898Z,10.90
2018-11-20T05:52:48.907Z,10.70
2018-11-20T05:53:48.922Z,11.50
2018-11-20T05:54:48.934Z,10.90
2018-11-20T05:55:48.949Z,11.00
2018-11-20T05:56:48.950Z,11.40
2018-11-20T05:57:48.966Z,11.00
2018-11-20T05:58:48.982Z,10.30
2018-11-20T05:59:49.002Z,11.40
2018-11-20T06:00:49.004Z,11.10
2018-11-20T06:01:49.016Z,10.60
2018-11-20T06:02:49.031Z,10.70
2018-11-20T06:03:49.032Z,10.70
2018-11-20T06:04:49.058Z,10.20
2018-11-20T06:05:49.105Z,10.80
2018-11-20T06:06:49.072Z,11.40
2018-11-20T06:07:49.086Z,10.50
2018-11-20T06:08:49.101Z,11.10
2018-11-20T06:09:49.114Z,11.40
2018-11-20T06:10:49.114Z,11.10
2018-11-20T06:11:49.128Z,11.30
2018-11-20T06:12:49.230Z,11.20
2018-11-20T06:13:49.154Z,11.50
2018-11-20T06:14:49.169Z,10.90
2018-11-20T06:15:49.184Z,11.50
2018-11-20T06:16:49.183Z,11.70
2018-11-20T06:17:49.197Z,11.30
2018-11-20T06:18:49.255Z,11.20
2018-11-20T06:19:49.224Z,11.70
2018-11-20T06:20:49.236Z,11.40
2018-11-20T06:21:49.251Z,11.60
2018-11-20T06:22:49.264Z,11.00
2018-11-20T06:23:49.265Z,9.90
2018-11-20T06:24:49.279Z,11.20
2018-11-20T06:25:49.297Z,11.90
2018-11-20T06:26:49.305Z,11.90
2018-11-20T06:27:49.319Z,10.70
2018-11-20T06:28:49.375Z,10.60
2018-11-20T06:29:49.335Z,11.20
2018-11-20T06:30:49.348Z,11.60
2018-11-20T06:31:49.367Z,10.90
2018-11-20T06:32:49.376Z,10.80
2018-11-20T06:33:49.389Z,11.10
2018-11-20T06:34:49.409Z,11.50
2018-11-20T06:35:49.416Z,10.90
2018-11-20T06:36:49.417Z,11.50
2018-11-20T06:37:49.429Z,11.30
2018-11-20T06:38:49.444Z,11.40
2018-11-20T06:39:49.461Z,11.10
2018-11-20T06:40:49.470Z,11.40
2018-11-20T06:41:49.483Z,11.60
2018-11-20T06:42:49.487Z,10.50
2018-11-20T06:43:49.499Z,11.10
2018-11-20T06:44:49.525Z,11.30
2018-11-20T06:45:49.526Z,11.30
2018-11-20T06:46:49.538Z,11.10
2018-11-20T06:47:49.552Z,11.50
2018-11-20T06:48:49.554Z,11.30
2018-11-20T06:49:49.568Z,11.50
2018-11-20T06:50:49.581Z,11.30
2018-11-20T06:51:49.595Z,11.60
2018-11-20T06:52:49.666Z,10.50
2018-11-20T06:53:49.620Z,11.60
2018-11-20T06:54:49.635Z,11.40
2018-11-20T06:55:49.647Z,11.30
2018-11-20T06:56:49.649Z,11.20
2018-11-20T06:57:49.665Z,11.50
2018-11-20T06:58:49.676Z,11.00
2018-11-20T06:59:49.690Z,11.60
2018-11-20T07:00:49.706Z,11.80
2018-11-20T07:01:49.717Z,11.30
2018-11-20T07:02:49.718Z,11.50
2018-11-20T07:03:49.744Z,10.90
2018-11-20T07:04:49.744Z,11.50
2018-11-20T07:05:49.757Z,11.10
2018-11-20T07:06:49.774Z,11.00
2018-11-20T07:07:49.845Z,11.50
2018-11-20T07:08:49.815Z,11.50
2018-11-20T07:09:49.800Z,11.30
2018-11-20T07:10:49.812Z,12.30
2018-11-20T07:11:49.829Z,12.00
2018-11-20T07:12:49.842Z,11.40
2018-11-20T07:13:49.854Z,12.60
2018-11-20T07:14:49.867Z,12.30
2018-11-20T07:15:50.014Z,11.50
2018-11-20T07:16:49.884Z,11.80
2018-11-20T07:17:49.896Z,12.50
2018-11-20T07:18:49.913Z,11.60
2018-11-20T07:19:49.935Z,11.40
2018-11-20T07:20:49.938Z,11.10
2018-11-20T07:21:50.199Z,11.30
2018-11-20T07:22:49.950Z,11.80
2018-11-20T07:23:49.965Z,12.00
2018-11-20T07:24:50.054Z,12.10
2018-11-20T07:25:49.994Z,12.20
2018-11-20T07:26:50.004Z,12.10
2018-11-20T07:27:50.018Z,11.40
2018-11-20T07:28:50.020Z,11.30
2018-11-20T07:29:50.082Z,11.00
2018-11-20T07:30:50.160Z,11.50
2018-11-20T07:31:50.065Z,11.40
2018-11-20T07:32:50.075Z,12.60
2018-11-20T07:33:50.088Z,11.40
2018-11-20T07:34:50.120Z,12.20
2018-11-20T07:35:50.103Z,10.90
2018-11-20T07:36:50.260Z,10.90
2018-11-20T07:37:50.129Z,11.60
2018-11-20T07:38:50.142Z,11.60
2018-11-20T07:39:50.161Z,11.90
2018-11-20T07:40:50.170Z,11.40
2018-11-20T07:41:50.171Z,11.90
2018-11-20T07:42:50.185Z,11.40
2018-11-20T07:43:50.393Z,11.00
2018-11-20T07:44:50.211Z,11.40
2018-11-20T07:45:50.223Z,12.70
2018-11-20T07:46:50.238Z,11.90
2018-11-20T07:47:50.250Z,11.40
2018-11-20T07:48:50.252Z,12.20
2018-11-20T07:49:50.267Z,10.60
2018-11-20T07:50:50.278Z,12.20
2018-11-20T07:51:50.294Z,11.70
2018-11-20T07:52:50.307Z,12.00
2018-11-20T07:53:50.320Z,11.40
2018-11-20T07:54:50.333Z,11.80
2018-11-20T07:55:50.346Z,12.00
2018-11-20T07:56:50.352Z,11.20
2018-11-20T07:57:50.362Z,11.00
2018-11-20T07:58:50.380Z,11.60
2018-11-20T07:59:50.388Z,11.20
2018-11-20T08:00:50.405Z,10.70
2018-11-20T08:01:50.404Z,10.80
2018-11-20T08:02:50.418Z,12.30
2018-11-20T08:03:50.431Z,11.30
2018-11-20T08:04:50.445Z,12.70
2018-11-20T08:05:50.458Z,11.50
2018-11-20T08:06:50.471Z,11.10
2018-11-20T08:07:50.485Z,12.10
2018-11-20T08:08:50.485Z,12.10
2018-11-20T08:09:50.499Z,11.70
2018-11-20T08:10:50.513Z,11.90
2018-11-20T08:11:50.526Z,11.90
2018-11-20T08:12:50.543Z,11.60
2018-11-20T08:13:50.552Z,11.40
2018-11-20T08:14:50.557Z,12.20
2018-11-20T08:15:50.619Z,11.10
2018-11-20T08:16:50.582Z,11.40
2018-11-20T08:17:50.597Z,12.30
2018-11-20T08:18:50.608Z,12.30
2018-11-20T08:19:50.623Z,11.80
2018-11-20T08:20:50.635Z,12.00
2018-11-20T08:21:50.636Z,11.70
2018-11-20T08:22:50.650Z,12.40
2018-11-20T08:23:50.676Z,11.40
2018-11-20T08:24:50.678Z,11.30
2018-11-20T08:25:50.710Z,11.50
2018-11-20T08:26:50.705Z,11.50
2018-11-20T08:27:50.722Z,11.60
2018-11-20T08:28:50.763Z,11.80
2018-11-20T08:29:50.736Z,12.40
2018-11-20T08:30:50.793Z,12.20
2018-11-20T08:31:50.760Z,11.60
2018-11-20T08:32:50.773Z,11.50
2018-11-20T08:33:50.835Z,12.10
2018-11-20T08:34:50.800Z,12.10
2018-11-20T08:35:50.814Z,11.80
2018-11-20T08:36:50.827Z,12.00
2018-11-20T08:37:50.827Z,12.40
2018-11-20T08:38:50.842Z,12.00
2018-11-20T08:39:50.868Z,15.00
2018-11-20T08:40:50.873Z,13.40
2018-11-20T08:41:50.881Z,12.50
2018-11-20T08:42:50.897Z,12.10
2018-11-20T08:43:50.923Z,11.10
2018-11-20T08:44:50.924Z,11.50
2018-11-20T08:45:50.924Z,11.20
2018-11-20T08:46:50.937Z,12.70
2018-11-20T08:47:51.067Z,11.60
2018-11-20T08:48:50.967Z,11.60
2018-11-20T08:49:50.978Z,12.10
2018-11-20T08:50:50.991Z,11.70
2018-11-20T08:51:51.017Z,12.00
2018-11-20T08:52:51.062Z,11.10
2018-11-20T08:53:51.141Z,11.50
2018-11-20T08:54:51.033Z,11.70
2018-11-20T08:55:51.046Z,11.40
2018-11-20T08:56:51.062Z,12.00
2018-11-20T08:57:51.073Z,11.50
2018-11-20T08:58:51.088Z,11.90
2018-11-20T08:59:51.105Z,11.40
2018-11-20T09:00:51.101Z,11.90
2018-11-20T09:01:51.139Z,11.90
2018-11-20T09:02:51.231Z,11.20
2018-11-20T09:03:51.143Z,12.10
2018-11-20T09:04:51.160Z,11.40
2018-11-20T09:05:51.170Z,10.80
2018-11-20T09:06:51.183Z,11.70
2018-11-20T09:07:51.186Z,12.10
2018-11-20T09:08:51.198Z,11.20
2018-11-20T09:09:51.243Z,11.00
2018-11-20T09:10:51.227Z,10.70
2018-11-20T09:11:51.239Z,10.60
2018-11-20T09:12:51.258Z,11.60
2018-11-20T09:13:51.267Z,12.20
2018-11-20T09:14:51.279Z,11.60
2018-11-20T09:15:51.292Z,11.70
2018-11-20T09:16:51.294Z,11.80
2018-11-20T09:17:51.355Z,11.30
2018-11-20T09:18:51.321Z,11.80
2018-11-20T09:19:51.334Z,12.10
2018-11-20T09:20:51.352Z,11.10
2018-11-20T09:21:51.361Z,12.20
2018-11-20T09:22:51.388Z,11.00
2018-11-20T09:23:51.391Z,11.50
2018-11-20T09:24:51.389Z,12.40
2018-11-20T09:25:51.478Z,12.50
2018-11-20T09:26:51.416Z,11.70
2018-11-20T09:27:51.485Z,11.80
2018-11-20T09:28:51.443Z,11.70
2018-11-20T09:29:51.458Z,11.30
2018-11-20T09:30:51.471Z,12.00
2018-11-20T09:31:51.483Z,11.80
2018-11-20T09:32:51.484Z,12.30
2018-11-20T09:33:51.498Z,12.10
2018-11-20T09:34:51.525Z,12.20
2018-11-20T09:35:51.526Z,12.20
2018-11-20T09:36:51.538Z,12.10
2018-11-20T09:37:51.557Z,12.20
2018-11-20T09:38:51.566Z,11.70
2018-11-20T09:39:51.580Z,12.60
2018-11-20T09:40:51.582Z,12.80
2018-11-20T09:41:51.593Z,11.50
2018-11-20T09:42:51.609Z,11.90
2018-11-20T09:43:51.621Z,11.70
2018-11-20T09:44:51.635Z,12.20
2018-11-20T09:45:51.648Z,12.30
2018-11-20T09:46:51.726Z,12.50
2018-11-20T09:47:51.675Z,13.30
2018-11-20T09:48:51.678Z,12.90
2018-11-20T09:49:51.697Z,12.50
2018-11-20T09:50:51.719Z,12.80
2018-11-20T09:51:51.717Z,12.20
2018-11-20T09:52:51.801Z,12.70
2018-11-20T09:53:51.744Z,12.20
2018-11-20T09:54:51.759Z,13.20
2018-11-20T09:55:51.772Z,12.50
2018-11-20T09:56:51.773Z,12.50
2018-11-20T09:57:51.798Z,13.30
2018-11-20T09:58:51.801Z,12.40
2018-11-20T09:59:51.859Z,12.70
2018-11-20T10:00:51.827Z,12.50
2018-11-20T10:01:51.876Z,12.80
2018-11-20T10:02:51.854Z,13.50
2018-11-20T10:03:52.006Z,13.20
2018-11-20T10:04:51.869Z,12.80
2018-11-20T10:05:51.884Z,12.80
2018-11-20T10:06:51.906Z,12.90
2018-11-20T10:07:51.912Z,12.70
2018-11-20T10:08:51.936Z,13.20
2018-11-20T10:09:51.936Z,12.70
2018-11-20T10:10:51.948Z,13.00
2018-11-20T10:11:51.963Z,13.20
2018-11-20T10:12:51.964Z,13.20
2018-11-20T10:13:51.993Z,13.50
2018-11-20T10:14:52.088Z,14.20
2018-11-20T10:15:52.005Z,13.60
2018-11-20T10:16:52.018Z,14.40
2018-11-20T10:17:52.031Z,13.00
2018-11-20T10:18:52.045Z,13.80
2018-11-20T10:19:52.061Z,13.00
2018-11-20T10:20:52.111Z,13.20
2018-11-20T10:21:52.099Z,13.80
2018-11-20T10:22:52.087Z,13.60
2018-11-20T10:23:52.139Z,13.90
2018-11-20T10:24:52.250Z,13.40
2018-11-20T10:25:52.189Z,13.20
2018-11-20T10:26:52.139Z,13.50
2018-11-20T10:27:52.154Z,14.40
2018-11-20T10:28:52.160Z,13.00
2018-11-20T10:29:52.172Z,13.60
2018-11-20T10:30:52.183Z,14.20
2018-11-20T10:31:52.197Z,13.90
2018-11-20T10:32:52.215Z,13.70
2018-11-20T10:33:52.224Z,14.00
2018-11-20T10:34:52.290Z,13.40
2018-11-20T10:35:52.263Z,13.60
2018-11-20T10:36:52.252Z,14.10
2018-11-20T10:37:52.264Z,13.00
2018-11-20T10:38:52.278Z,14.50
2018-11-20T10:39:52.292Z,13.70
2018-11-20T10:40:52.304Z,14.10
2018-11-20T10:41:52.320Z,13.40
2018-11-20T10:42:52.332Z,13.30
2018-11-20T10:43:52.345Z,15.10
2018-11-20T10:44:52.346Z,13.60
2018-11-20T10:45:52.393Z,13.80
2018-11-20T10:46:52.374Z,14.00
2018-11-20T10:47:52.388Z,13.90
2018-11-20T10:48:52.402Z,14.20
2018-11-20T10:49:52.413Z,13.00
2018-11-20T10:50:52.428Z,14.00
2018-11-20T10:51:52.443Z,14.60
2018-11-20T10:52:52.443Z,14.50
2018-11-20T10:53:52.456Z,14.30
2018-11-20T10:54:52.469Z,13.80
2018-11-20T10:55:52.484Z,14.60
2018-11-20T10:56:52.496Z,13.60
2018-11-20T10:57:52.509Z,13.60
2018-11-20T10:58:52.524Z,13.90
2018-11-20T10:59:52.696Z,14.00
2018-11-20T11:00:52.550Z,13.40
2018-11-20T11:01:52.554Z,14.00
2018-11-20T11:02:52.566Z,13.60
2018-11-20T11:03:52.580Z,14.70
2018-11-20T11:04:52.652Z,14.20
2018-11-20T11:05:52.606Z,13.70
2018-11-20T11:06:52.775Z,13.90
2018-11-20T11:07:52.817Z,14.60
2018-11-20T11:08:52.647Z,14.90
2018-11-20T11:09:52.660Z,14.00
2018-11-20T11:10:52.661Z,14.90
2018-11-20T11:11:52.705Z,13.90
2018-11-20T11:12:52.688Z,14.00
2018-11-20T11:13:52.709Z,14.70
2018-11-20T11:14:52.727Z,14.20
2018-11-20T11:15:52.728Z,13.60
2018-11-20T11:16:52.742Z,14.20
2018-11-20T11:17:52.756Z,14.00
2018-11-20T11:18:52.769Z,14.30
2018-11-20T11:19:52.783Z,14.30
2018-11-20T11:20:52.838Z,14.20
2018-11-20T11:21:52.800Z,14.70
2018-11-20T11:22:52.813Z,15.00
2018-11-20T11:23:52.826Z,14.70
2018-11-20T11:24:52.840Z,14.20
2018-11-20T11:25:52.852Z,15.20
2018-11-20T11:26:52.867Z,15.00
2018-11-20T11:27:52.881Z,14.10
2018-11-20T11:28:52.888Z,15.40
2018-11-20T11:29:52.897Z,13.60
2018-11-20T11:30:52.908Z,14.30
2018-11-20T11:31:52.922Z,14.50
2018-11-20T11:32:52.937Z,14.30
2018-11-20T11:33:52.950Z,14.50
2018-11-20T11:34:52.962Z,14.70
2018-11-20T11:35:52.977Z,17.20
2018-11-20T11:36:52.979Z,14.70
2018-11-20T11:37:52.990Z,14.60
2018-11-20T11:38:53.004Z,15.50
2018-11-20T11:39:53.018Z,15.10
2018-11-20T11:40:53.031Z,15.90
2018-11-20T11:41:53.058Z,15.90
2018-11-20T11:42:53.058Z,14.50
2018-11-20T11:43:53.072Z,15.20
2018-11-20T11:44:53.089Z,13.70
2018-11-20T11:45:53.099Z,15.80
2018-11-20T11:46:53.100Z,15.20
2018-11-20T11:47:53.119Z,14.70
2018-11-20T11:48:53.126Z,15.60
2018-11-20T11:49:53.144Z,15.40
2018-11-20T11:50:53.153Z,16.10
2018-11-20T11:51:53.167Z,15.00
2018-11-20T11:52:53.181Z,16.70
2018-11-20T11:53:53.195Z,16.10
2018-11-20T11:54:53.297Z,15.30
2018-11-20T11:55:53.215Z,16.30
2018-11-20T11:56:53.222Z,16.10
2018-11-20T11:57:53.235Z,15.80
2018-11-20T11:58:53.249Z,15.70
2018-11-20T11:59:53.302Z,15.50
2018-11-20T12:00:53.280Z,16.20
2018-11-20T12:03:53.306Z,15.70
2018-11-20T12:04:53.318Z,15.80
2018-11-20T12:05:55.903Z,16.40
2018-11-20T12:06:53.345Z,16.90
2018-11-20T12:07:53.361Z,16.40
2018-11-20T12:08:53.373Z,17.00
2018-11-20T12:09:53.386Z,16.80
2018-11-20T12:10:53.403Z,16.70
2018-11-20T12:11:53.403Z,16.10
2018-11-20T12:12:53.415Z,15.90
2018-11-20T12:13:53.440Z,15.90
2018-11-20T12:14:53.442Z,16.10
2018-11-20T12:15:53.459Z,15.30
2018-11-20T12:16:53.478Z,16.70
2018-11-20T12:17:53.485Z,15.80
2018-11-20T12:18:54.357Z,16.60
2018-11-20T12:19:53.509Z,15.40
2018-11-20T12:20:53.509Z,16.10
2018-11-20T12:21:53.524Z,16.30
2018-11-20T12:22:53.539Z,16.30
2018-11-20T12:23:53.551Z,16.00
2018-11-20T12:24:53.564Z,16.30
2018-11-20T12:25:53.578Z,15.70
2018-11-20T12:26:53.591Z,15.40
2018-11-20T12:27:53.611Z,16.90
2018-11-20T12:28:55.853Z,15.40
2018-11-20T12:29:55.451Z,17.00
2018-11-20T12:30:53.766Z,16.00
2018-11-20T12:31:53.650Z,17.40
2018-11-20T12:32:53.660Z,16.60
2018-11-20T12:33:53.698Z,16.90
2018-11-20T12:34:54.430Z,16.90
2018-11-20T12:35:54.560Z,16.20
2018-11-20T12:36:53.729Z,16.50
2018-11-20T12:37:53.715Z,15.90
2018-11-20T12:38:53.728Z,16.20
2018-11-20T12:39:53.747Z,16.60
2018-11-20T12:40:53.758Z,16.60
2018-11-20T12:41:53.769Z,16.00
2018-11-20T12:42:53.787Z,16.00
2018-11-20T12:43:54.846Z,16.60
2018-11-20T12:44:54.366Z,16.60
2018-11-20T12:45:53.897Z,16.90
2018-11-20T12:46:53.825Z,16.70
2018-11-20T12:47:53.839Z,15.90
2018-11-20T12:48:53.864Z,15.90
2018-11-20T12:49:53.875Z,15.80
2018-11-20T12:50:53.879Z,15.30
2018-11-20T12:51:53.903Z,16.60
2018-11-20T12:52:53.907Z,16.30
2018-11-20T12:53:53.909Z,15.90
2018-11-20T12:54:53.920Z,16.40
2018-11-20T12:55:54.883Z,16.40
2018-11-20T12:56:53.973Z,16.40
2018-11-20T12:57:54.065Z,15.50
2018-11-20T12:58:54.167Z,16.30
2018-11-20T12:59:53.988Z,16.90
2018-11-20T13:00:53.989Z,15.40